Terminal Aerodrome Forecast
Issued by NWS Sioux Falls, SD

Home | Current Version | Previous Version | Graphics & Text | Print | Product List | Glossary Off
Versions: 1 2 3 4 5 6 7 8 9 10 11 12 13 14 15 16 17 18 19 20 21 22 23 24 25 26 27 28 29 30 31 32

469
FTUS43 KFSD 181131
TAFSUX
TAF
KSUX 181131Z 1812/1912 10004KT P6SM SCT120 BKN200
     FM181400 22006KT P6SM SCT200
     FM182000 29007KT P6SM SCT200
     FM190500 VRB03KT P6SM SKC
     FM190900 00000KT 4SM BR FEW150
      TEMPO 1910/1912 1SM BR SCT002=

USA.gov is the U.S. government's official web portal to all federal, state and local government web resources and services.